createdAt,value
2019-01-26T00:02:17.237Z,0.70
2019-01-26T00:04:45.440Z,0.70
2019-01-26T00:07:15.491Z,0.70
2019-01-26T00:09:44.430Z,1.60
2019-01-26T00:12:13.321Z,0.70
2019-01-26T00:14:41.798Z,0.70
2019-01-26T00:17:11.483Z,0.80
2019-01-26T00:19:40.107Z,0.80
2019-01-26T00:22:09.626Z,0.80
2019-01-26T00:24:38.155Z,0.80
2019-01-26T00:27:06.874Z,0.80
2019-01-26T00:29:35.929Z,0.80
2019-01-26T00:32:04.762Z,0.70
2019-01-26T00:34:33.634Z,0.70
2019-01-26T00:37:02.700Z,0.80
2019-01-26T00:39:31.824Z,0.70
2019-01-26T00:42:00.553Z,0.70
2019-01-26T00:44:29.603Z,0.70
2019-01-26T00:46:59.089Z,0.70
2019-01-26T00:49:27.186Z,0.70
2019-01-26T00:51:56.266Z,0.70
2019-01-26T00:54:25.169Z,0.60
2019-01-26T00:56:53.339Z,0.60
2019-01-26T00:59:21.504Z,0.50
2019-01-26T01:01:50.911Z,0.50
2019-01-26T01:04:18.743Z,0.50
2019-01-26T01:06:46.755Z,0.40
2019-01-26T01:09:14.819Z,0.30
2019-01-26T01:11:42.990Z,0.30
2019-01-26T01:14:11.250Z,0.30
2019-01-26T01:16:39.156Z,0.20
2019-01-26T01:19:07.616Z,0.20
2019-01-26T01:21:35.593Z,0.10
2019-01-26T01:24:03.559Z,0.20
2019-01-26T01:26:31.802Z,0.10
2019-01-26T01:28:59.969Z,0.10
2019-01-26T01:31:28.456Z,0.10
2019-01-26T01:33:57.853Z,0.10
2019-01-26T01:36:25.696Z,0.10
2019-01-26T01:38:53.525Z,0.00
2019-01-26T01:41:21.749Z,0.00
2019-01-26T01:43:50.102Z,0.00
2019-01-26T01:46:18.707Z,0.00
2019-01-26T01:48:46.881Z,0.00
2019-01-26T01:51:15.466Z,0.00
2019-01-26T01:53:44.443Z,0.10
2019-01-26T01:56:12.519Z,0.10
2019-01-26T01:58:40.344Z,0.00
2019-01-26T02:01:08.580Z,0.00
2019-01-26T02:03:36.936Z,0.00
2019-01-26T02:06:05.614Z,0.00
2019-01-26T02:08:33.439Z,0.00
2019-01-26T02:11:01.344Z,0.00
2019-01-26T02:13:29.720Z,0.10
2019-01-26T02:15:57.539Z,0.10
2019-01-26T02:18:25.541Z,0.10
2019-01-26T02:20:53.369Z,0.10
2019-01-26T02:23:22.101Z,0.10
2019-01-26T02:25:50.131Z,0.10
2019-01-26T02:28:18.242Z,0.10
2019-01-26T02:30:46.374Z,0.10
2019-01-26T02:33:14.894Z,0.00
2019-01-26T02:35:43.458Z,0.00
2019-01-26T02:38:11.854Z,0.00
2019-01-26T02:40:40.130Z,0.00
2019-01-26T02:43:09.058Z,0.00
2019-01-26T02:45:37.394Z,0.00
2019-01-26T02:48:05.777Z,0.10
2019-01-26T02:50:34.442Z,0.10
2019-01-26T02:53:03.889Z,0.10
2019-01-26T02:55:50.463Z,0.10
2019-01-26T02:58:19.255Z,0.10
2019-01-26T03:00:47.823Z,0.10
2019-01-26T03:03:16.657Z,0.20
2019-01-26T03:05:45.270Z,0.20
2019-01-26T03:08:13.746Z,0.20
2019-01-26T03:10:42.257Z,0.20
2019-01-26T03:13:10.206Z,0.20
2019-01-26T03:15:38.300Z,0.30
2019-01-26T03:18:06.593Z,0.30
2019-01-26T03:20:35.161Z,0.30
2019-01-26T03:23:03.381Z,0.30
2019-01-26T03:25:31.910Z,0.30
2019-01-26T03:28:00.368Z,0.30
2019-01-26T03:30:28.548Z,0.40
2019-01-26T03:32:56.762Z,0.40
2019-01-26T03:35:25.418Z,0.40
2019-01-26T03:37:53.988Z,0.40
2019-01-26T03:40:22.980Z,0.40
2019-01-26T03:42:51.555Z,0.40
2019-01-26T03:45:19.378Z,0.40
2019-01-26T03:47:48.385Z,0.40
2019-01-26T03:50:17.985Z,0.50
2019-01-26T03:52:46.603Z,0.50
2019-01-26T03:55:17.000Z,0.50
2019-01-26T03:57:45.482Z,0.60
2019-01-26T04:00:17.101Z,0.60
2019-01-26T04:02:45.716Z,0.60
2019-01-26T04:05:14.100Z,0.60
2019-01-26T04:07:42.241Z,0.60
2019-01-26T04:10:10.954Z,0.60
2019-01-26T04:12:38.802Z,0.60
2019-01-26T04:15:09.845Z,0.60
2019-01-26T04:17:39.036Z,0.60
2019-01-26T04:20:10.150Z,0.60
2019-01-26T04:22:37.953Z,0.60
2019-01-26T04:25:06.135Z,0.60
2019-01-26T04:27:34.515Z,0.60
2019-01-26T04:30:03.705Z,0.70
2019-01-26T04:32:31.466Z,0.70
2019-01-26T04:34:59.613Z,0.70
2019-01-26T04:37:28.278Z,0.70
2019-01-26T04:39:56.838Z,0.70
2019-01-26T04:42:25.290Z,0.70
2019-01-26T04:44:53.599Z,0.70
2019-01-26T04:47:21.572Z,0.70
2019-01-26T04:49:50.081Z,0.70
2019-01-26T04:52:18.263Z,0.70
2019-01-26T04:54:46.639Z,0.80
2019-01-26T04:57:16.492Z,0.70
2019-01-26T04:59:45.155Z,0.70
2019-01-26T05:02:13.952Z,0.60
2019-01-26T05:04:42.325Z,0.60
2019-01-26T05:07:10.474Z,0.60
2019-01-26T05:09:38.338Z,0.60
2019-01-26T05:12:06.358Z,0.60
2019-01-26T05:14:34.317Z,0.60
2019-01-26T05:17:03.206Z,0.60
2019-01-26T05:19:31.947Z,0.70
2019-01-26T05:22:00.468Z,0.70
2019-01-26T05:24:28.716Z,0.60
2019-01-26T05:26:57.420Z,0.70
2019-01-26T05:29:25.748Z,0.70
2019-01-26T05:31:55.090Z,0.60
2019-01-26T05:34:23.064Z,0.70
2019-01-26T05:36:51.232Z,0.70
2019-01-26T05:39:20.287Z,0.70
2019-01-26T05:41:48.513Z,0.70
2019-01-26T05:44:16.278Z,0.70
2019-01-26T05:46:44.180Z,0.70
2019-01-26T05:49:12.128Z,0.70
2019-01-26T05:51:40.807Z,0.70
2019-01-26T05:54:09.331Z,0.70
2019-01-26T05:56:37.168Z,0.80
2019-01-26T05:59:06.046Z,0.80
2019-01-26T06:01:33.905Z,0.80
2019-01-26T06:04:01.815Z,0.80
2019-01-26T06:06:29.641Z,0.90
2019-01-26T06:08:57.587Z,0.90
2019-01-26T06:11:26.332Z,0.80
2019-01-26T06:13:54.391Z,0.90
2019-01-26T06:16:23.790Z,0.80
2019-01-26T06:18:51.973Z,0.90
2019-01-26T06:21:20.045Z,0.90
2019-01-26T06:23:48.013Z,0.90
2019-01-26T06:26:15.866Z,0.80
2019-01-26T06:28:44.446Z,0.80
2019-01-26T06:31:12.914Z,0.80
2019-01-26T06:33:41.411Z,0.80
2019-01-26T06:36:09.824Z,0.80
2019-01-26T06:38:38.396Z,0.90
2019-01-26T06:41:06.799Z,0.90
2019-01-26T06:43:35.372Z,1.00
2019-01-26T06:46:03.301Z,1.00
2019-01-26T06:48:31.882Z,1.00
2019-01-26T06:51:00.239Z,1.00
2019-01-26T06:53:28.649Z,1.00
2019-01-26T06:55:56.812Z,1.00
2019-01-26T06:58:24.702Z,1.00
2019-01-26T07:00:52.592Z,1.00
2019-01-26T07:03:20.616Z,1.10
2019-01-26T07:06:07.652Z,1.00
2019-01-26T07:08:35.886Z,1.10
2019-01-26T07:11:04.575Z,1.00
2019-01-26T07:13:32.451Z,1.00
2019-01-26T07:16:00.480Z,1.00
2019-01-26T07:18:28.966Z,1.00
2019-01-26T07:20:57.911Z,1.10
2019-01-26T07:23:26.289Z,1.10
2019-01-26T07:25:54.247Z,1.10
2019-01-26T07:28:23.265Z,1.10
2019-01-26T07:30:51.162Z,1.20
2019-01-26T07:33:20.537Z,1.20
2019-01-26T07:35:48.730Z,1.20
2019-01-26T07:38:16.544Z,1.30
2019-01-26T07:40:44.509Z,1.30
2019-01-26T07:43:13.151Z,1.40
2019-01-26T07:45:42.380Z,1.40
2019-01-26T07:48:16.794Z,1.40
2019-01-26T07:50:40.962Z,1.40
2019-01-26T07:53:09.887Z,1.50
2019-01-26T07:55:38.315Z,1.50
2019-01-26T07:58:07.148Z,1.50
2019-01-26T08:00:35.059Z,1.60
2019-01-26T08:03:03.344Z,1.60
2019-01-26T08:05:31.933Z,1.60
2019-01-26T08:07:59.759Z,1.60
2019-01-26T08:10:30.362Z,1.70
2019-01-26T08:12:58.898Z,1.70
2019-01-26T08:15:31.104Z,1.80
2019-01-26T08:17:59.122Z,1.80
2019-01-26T08:20:28.251Z,1.90
2019-01-26T08:22:56.752Z,1.90
2019-01-26T08:25:24.981Z,1.90
2019-01-26T08:27:53.853Z,1.90
2019-01-26T08:30:22.099Z,2.00
2019-01-26T08:32:50.747Z,2.10
2019-01-26T08:35:20.225Z,2.20
2019-01-26T08:37:49.320Z,2.30
2019-01-26T08:40:18.951Z,2.40
2019-01-26T08:42:47.298Z,2.50
2019-01-26T08:45:15.648Z,2.60
2019-01-26T08:47:44.255Z,2.60
2019-01-26T08:50:18.453Z,2.70
2019-01-26T08:52:47.040Z,2.80
2019-01-26T08:55:18.298Z,2.90
2019-01-26T08:57:45.598Z,2.90
2019-01-26T09:00:18.244Z,2.90
2019-01-26T09:03:06.156Z,2.90
2019-01-26T09:05:39.406Z,2.80
2019-01-26T09:08:07.717Z,2.70
2019-01-26T09:10:36.407Z,2.80
2019-01-26T09:13:04.468Z,2.80
2019-01-26T09:15:32.888Z,3.00
2019-01-26T09:18:02.020Z,3.10
2019-01-26T09:20:32.368Z,3.20
2019-01-26T09:23:00.657Z,3.40
2019-01-26T09:25:35.814Z,3.50
2019-01-26T09:28:05.830Z,3.70
2019-01-26T09:30:33.978Z,3.80
2019-01-26T09:33:02.146Z,3.90
2019-01-26T09:35:30.190Z,4.10
2019-01-26T09:37:58.072Z,4.20
2019-01-26T09:40:26.437Z,4.30
2019-01-26T09:42:54.927Z,4.30
2019-01-26T09:45:22.798Z,4.40
2019-01-26T09:47:50.951Z,4.50
2019-01-26T09:50:19.639Z,4.60
2019-01-26T09:52:48.469Z,4.70
2019-01-26T09:55:16.912Z,4.80
2019-01-26T09:57:45.996Z,4.90
2019-01-26T10:00:16.811Z,4.90
2019-01-26T10:02:45.056Z,4.90
2019-01-26T10:05:14.007Z,5.00
2019-01-26T10:07:43.124Z,5.10
2019-01-26T10:10:11.909Z,5.20
2019-01-26T10:12:40.158Z,5.20
2019-01-26T10:15:11.686Z,5.30
2019-01-26T10:17:45.734Z,5.20
2019-01-26T10:20:22.265Z,5.20
2019-01-26T10:22:51.096Z,5.20
2019-01-26T10:25:19.430Z,5.10
2019-01-26T10:27:48.919Z,5.10
2019-01-26T10:30:24.993Z,5.20
2019-01-26T10:32:53.416Z,5.30
2019-01-26T10:35:23.913Z,5.50
2019-01-26T10:37:52.151Z,5.60
2019-01-26T10:40:35.820Z,5.70
2019-01-26T10:43:05.134Z,5.70
2019-01-26T10:45:33.347Z,5.80
2019-01-26T10:48:02.018Z,5.80
2019-01-26T10:50:33.451Z,5.90
2019-01-26T10:53:01.244Z,6.10
2019-01-26T10:55:30.005Z,6.30
2019-01-26T10:57:58.012Z,6.50
2019-01-26T11:00:26.323Z,6.50
2019-01-26T11:02:54.510Z,6.40
2019-01-26T11:05:22.477Z,6.50
2019-01-26T11:07:51.175Z,6.60
2019-01-26T11:10:19.507Z,6.70
2019-01-26T11:12:47.635Z,6.80
2019-01-26T11:15:15.963Z,6.90
2019-01-26T11:17:44.646Z,7.00
2019-01-26T11:20:13.546Z,7.00
2019-01-26T11:22:41.385Z,7.10
2019-01-26T11:25:10.224Z,7.20
2019-01-26T11:27:38.965Z,7.30
2019-01-26T11:30:09.012Z,7.30
2019-01-26T11:32:36.913Z,7.30
2019-01-26T11:35:07.245Z,7.30
2019-01-26T11:37:35.674Z,7.30
2019-01-26T11:40:12.613Z,7.20
2019-01-26T11:42:41.009Z,7.10
2019-01-26T11:45:21.522Z,7.10
2019-01-26T11:47:50.773Z,7.10
2019-01-26T11:50:26.125Z,7.40
2019-01-26T11:52:55.502Z,7.90
2019-01-26T11:55:32.119Z,8.20
2019-01-26T11:58:00.673Z,8.40
2019-01-26T12:00:59.389Z,8.30
2019-01-26T12:03:57.520Z,8.30
2019-01-26T12:06:31.886Z,8.30
2019-01-26T12:09:00.032Z,8.20
2019-01-26T12:11:28.996Z,8.00
2019-01-26T12:13:57.711Z,8.00
2019-01-26T12:16:27.068Z,8.00
2019-01-26T12:18:55.483Z,8.00
2019-01-26T12:21:23.369Z,8.10
2019-01-26T12:23:51.823Z,8.00
2019-01-26T12:26:20.592Z,8.00
2019-01-26T12:28:49.334Z,7.80
2019-01-26T12:31:17.266Z,7.80
2019-01-26T12:33:45.284Z,7.80
2019-01-26T12:36:14.164Z,7.60
2019-01-26T12:38:42.060Z,7.40
2019-01-26T12:41:10.080Z,7.30
2019-01-26T12:43:38.630Z,7.20
2019-01-26T12:46:06.739Z,7.20
2019-01-26T12:48:35.057Z,7.10
2019-01-26T12:51:03.546Z,7.10
2019-01-26T12:53:32.425Z,7.10
2019-01-26T12:56:00.136Z,7.10
2019-01-26T12:58:29.590Z,7.00
2019-01-26T13:00:57.566Z,7.00
2019-01-26T13:03:25.916Z,6.90
2019-01-26T13:05:55.643Z,6.90
2019-01-26T13:08:24.152Z,7.00
2019-01-26T13:10:58.359Z,6.90
2019-01-26T13:13:31.924Z,7.00
2019-01-26T13:16:02.922Z,6.90
2019-01-26T13:18:31.766Z,6.90
2019-01-26T13:21:01.873Z,6.80
2019-01-26T13:23:30.156Z,6.80
2019-01-26T13:25:58.205Z,6.80
2019-01-26T13:28:27.261Z,6.90
2019-01-26T13:30:56.079Z,6.90
2019-01-26T13:33:24.563Z,6.90
2019-01-26T13:35:53.762Z,6.90
2019-01-26T13:38:22.147Z,7.00
2019-01-26T13:40:51.545Z,7.10
2019-01-26T13:43:19.895Z,7.20
2019-01-26T13:45:48.508Z,7.30
2019-01-26T13:48:16.715Z,7.20
2019-01-26T13:50:46.615Z,7.10
2019-01-26T13:53:15.014Z,7.10
2019-01-26T13:55:43.435Z,7.10
2019-01-26T13:58:12.927Z,7.00
2019-01-26T14:00:41.236Z,7.00
2019-01-26T14:03:09.551Z,7.00
2019-01-26T14:05:38.187Z,7.00
2019-01-26T14:08:06.334Z,7.10
2019-01-26T14:10:34.837Z,7.00
2019-01-26T14:13:03.852Z,6.90
2019-01-26T14:15:32.064Z,6.80
2019-01-26T14:18:00.824Z,6.70
2019-01-26T14:20:28.930Z,6.50
2019-01-26T14:22:57.232Z,6.40
2019-01-26T14:25:26.446Z,6.30
2019-01-26T14:27:54.835Z,6.30
2019-01-26T14:30:28.334Z,6.20
2019-01-26T14:32:57.261Z,6.20
2019-01-26T14:35:26.699Z,6.10
2019-01-26T14:37:54.763Z,6.20
2019-01-26T14:40:23.037Z,6.20
2019-01-26T14:42:54.465Z,6.20
2019-01-26T14:45:21.391Z,6.20
2019-01-26T14:47:49.290Z,6.20
2019-01-26T14:50:17.264Z,6.10
2019-01-26T14:52:45.263Z,6.00
2019-01-26T14:55:16.868Z,5.90
2019-01-26T14:57:45.452Z,5.80
2019-01-26T15:00:26.448Z,5.90
2019-01-26T15:02:54.961Z,5.80
2019-01-26T15:05:24.480Z,5.80
2019-01-26T15:07:52.814Z,5.80
2019-01-26T15:10:21.655Z,5.70
2019-01-26T15:12:49.883Z,5.70
2019-01-26T15:15:18.026Z,5.70
2019-01-26T15:17:46.028Z,5.70
2019-01-26T15:20:24.100Z,5.60
2019-01-26T15:22:52.068Z,5.60
2019-01-26T15:25:21.468Z,5.70
2019-01-26T15:27:49.543Z,5.60
2019-01-26T15:30:25.468Z,5.60
2019-01-26T15:32:54.416Z,5.50
2019-01-26T15:35:24.956Z,5.50
2019-01-26T15:37:53.145Z,5.50
2019-01-26T15:40:22.712Z,5.40
2019-01-26T15:42:52.025Z,5.30
2019-01-26T15:45:26.731Z,5.30
2019-01-26T15:47:55.963Z,5.20
2019-01-26T15:50:23.911Z,5.20
2019-01-26T15:52:52.064Z,5.20
2019-01-26T15:55:22.214Z,5.20
2019-01-26T15:57:50.245Z,5.20
2019-01-26T16:00:22.685Z,5.20
2019-01-26T16:02:50.550Z,5.30
2019-01-26T16:05:19.461Z,5.30
2019-01-26T16:07:47.575Z,5.20
2019-01-26T16:10:20.607Z,5.30
2019-01-26T16:12:48.430Z,5.20
2019-01-26T16:15:19.824Z,5.30
2019-01-26T16:17:48.572Z,5.20
2019-01-26T16:20:20.329Z,5.20
2019-01-26T16:22:48.133Z,5.20
2019-01-26T16:25:17.221Z,5.10
2019-01-26T16:27:45.931Z,5.00
2019-01-26T16:30:18.681Z,5.00
2019-01-26T16:32:47.151Z,5.00
2019-01-26T16:35:15.903Z,4.90
2019-01-26T16:37:45.656Z,4.90
2019-01-26T16:40:24.345Z,5.00
2019-01-26T16:42:53.450Z,4.90
2019-01-26T16:45:27.588Z,4.90
2019-01-26T16:47:57.635Z,4.90
2019-01-26T16:50:28.172Z,4.90
2019-01-26T16:52:58.590Z,4.90
2019-01-26T16:55:29.136Z,4.80
2019-01-26T16:57:58.852Z,4.80
2019-01-26T17:00:32.710Z,4.90
2019-01-26T17:03:01.939Z,4.90
2019-01-26T17:05:30.480Z,4.90
2019-01-26T17:08:00.463Z,4.90
2019-01-26T17:10:34.067Z,4.90
2019-01-26T17:12:59.017Z,5.00
2019-01-26T17:15:27.487Z,5.10
2019-01-26T17:17:56.863Z,5.10
2019-01-26T17:20:27.458Z,5.20
2019-01-26T17:22:56.087Z,5.20
2019-01-26T17:25:25.111Z,5.20
2019-01-26T17:27:53.871Z,5.20
2019-01-26T17:30:45.702Z,5.20
2019-01-26T17:33:14.661Z,5.20
2019-01-26T17:35:44.061Z,5.20
2019-01-26T17:38:12.846Z,5.20
2019-01-26T17:40:41.177Z,5.20
2019-01-26T17:43:09.721Z,5.10
2019-01-26T17:45:48.061Z,5.10
2019-01-26T17:48:17.937Z,5.00
2019-01-26T17:50:45.981Z,5.50
2019-01-26T17:53:14.072Z,5.00
2019-01-26T17:55:43.129Z,4.90
2019-01-26T17:58:11.376Z,4.90
2019-01-26T18:00:47.074Z,4.90
2019-01-26T18:03:16.929Z,5.00
2019-01-26T18:05:44.942Z,5.00
2019-01-26T18:08:13.542Z,5.00
2019-01-26T18:10:42.434Z,5.00
2019-01-26T18:13:11.009Z,5.00
2019-01-26T18:15:44.910Z,5.00
2019-01-26T18:18:14.949Z,5.00
2019-01-26T18:20:49.162Z,5.00
2019-01-26T18:23:16.180Z,5.00
2019-01-26T18:25:44.706Z,5.00
2019-01-26T18:28:13.538Z,5.00
2019-01-26T18:30:42.130Z,5.00
2019-01-26T18:33:10.312Z,5.00
2019-01-26T18:35:39.072Z,5.90
2019-01-26T18:38:07.492Z,4.90
2019-01-26T18:40:36.055Z,4.80
2019-01-26T18:43:03.927Z,4.90
2019-01-26T18:45:32.327Z,4.80
2019-01-26T18:48:00.342Z,4.80
2019-01-26T18:50:31.706Z,4.80
2019-01-26T18:53:00.937Z,4.80
2019-01-26T18:55:30.822Z,4.80
2019-01-26T18:58:00.298Z,4.90
2019-01-26T19:00:32.597Z,5.00
2019-01-26T19:03:16.977Z,5.00
2019-01-26T19:05:45.405Z,4.90
2019-01-26T19:08:13.476Z,5.00
2019-01-26T19:10:42.382Z,5.00
2019-01-26T19:13:10.895Z,4.90
2019-01-26T19:15:39.531Z,4.90
2019-01-26T19:18:08.023Z,4.90
2019-01-26T19:20:36.634Z,4.80
2019-01-26T19:23:05.178Z,4.80
2019-01-26T19:25:34.101Z,4.90
2019-01-26T19:28:02.441Z,5.00
2019-01-26T19:30:31.915Z,5.00
2019-01-26T19:33:01.479Z,5.10
2019-01-26T19:35:30.219Z,5.10
2019-01-26T19:38:56.516Z,5.00
2019-01-26T19:41:49.723Z,5.00
2019-01-26T19:44:23.487Z,5.00
2019-01-26T19:46:59.594Z,4.90
2019-01-26T19:49:35.251Z,4.90
2019-01-26T19:52:10.190Z,4.90
2019-01-26T19:54:46.262Z,4.90
2019-01-26T19:57:24.645Z,4.90
2019-01-26T19:59:59.710Z,4.90
2019-01-26T20:02:36.000Z,4.90
2019-01-26T20:05:18.556Z,4.90
2019-01-26T20:07:55.048Z,4.90
2019-01-26T20:10:29.742Z,4.80
2019-01-26T20:13:11.677Z,4.80
2019-01-26T20:15:51.402Z,4.90
2019-01-26T20:18:26.333Z,4.90
2019-01-26T20:21:00.254Z,4.90
2019-01-26T20:23:34.767Z,4.90
2019-01-26T20:26:09.459Z,4.80
2019-01-26T20:28:45.304Z,4.80
2019-01-26T20:31:21.996Z,4.80
2019-01-26T20:33:55.743Z,4.80
2019-01-26T20:36:40.709Z,4.80
2019-01-26T20:39:18.183Z,4.80
2019-01-26T20:41:54.163Z,4.70
2019-01-26T20:44:28.230Z,4.70
2019-01-26T20:47:02.311Z,4.60
2019-01-26T20:49:36.558Z,4.60
2019-01-26T20:52:11.312Z,4.50
2019-01-26T20:54:45.663Z,4.50
2019-01-26T20:57:19.156Z,4.50
2019-01-26T20:59:52.800Z,4.40
2019-01-26T21:02:28.023Z,4.40
2019-01-26T21:05:01.693Z,4.40
2019-01-26T21:07:38.021Z,4.40
2019-01-26T21:10:16.041Z,4.30
2019-01-26T21:12:49.618Z,4.20
2019-01-26T21:15:22.560Z,4.30
2019-01-26T21:17:55.525Z,4.30
2019-01-26T21:20:28.293Z,4.30
2019-01-26T21:23:00.675Z,4.40
2019-01-26T21:25:33.693Z,4.50
2019-01-26T21:28:06.703Z,4.60
2019-01-26T21:30:41.732Z,4.60
2019-01-26T21:33:14.797Z,4.60
2019-01-26T21:35:46.699Z,4.70
2019-01-26T21:38:19.877Z,4.60
2019-01-26T21:40:50.681Z,4.60
2019-01-26T21:43:22.350Z,4.70
2019-01-26T21:45:57.184Z,4.70
2019-01-26T21:48:29.303Z,4.90
2019-01-26T21:51:00.724Z,4.60
2019-01-26T21:53:34.145Z,4.60
2019-01-26T21:56:07.780Z,4.70
2019-01-26T21:58:39.317Z,4.70
2019-01-26T22:01:11.315Z,4.70
2019-01-26T22:03:43.712Z,4.70
2019-01-26T22:06:15.204Z,4.60
2019-01-26T22:08:47.580Z,4.60
2019-01-26T22:11:19.760Z,4.50
2019-01-26T22:13:52.265Z,4.40
2019-01-26T22:16:23.014Z,4.50
2019-01-26T22:18:55.368Z,4.50
2019-01-26T22:21:26.750Z,4.60
2019-01-26T22:23:56.657Z,4.70
2019-01-26T22:26:26.398Z,4.70
2019-01-26T22:28:55.230Z,4.70
2019-01-26T22:31:25.212Z,4.80
2019-01-26T22:33:55.189Z,4.90
2019-01-26T22:36:23.864Z,4.90
2019-01-26T22:39:01.963Z,5.00
2019-01-26T22:41:32.787Z,5.00
2019-01-26T22:44:02.220Z,5.00
2019-01-26T22:46:32.164Z,5.00
2019-01-26T22:49:01.192Z,5.10
2019-01-26T22:51:30.121Z,5.00
2019-01-26T22:53:58.646Z,4.90
2019-01-26T22:56:26.710Z,4.90
2019-01-26T22:58:55.441Z,4.90
2019-01-26T23:01:35.140Z,4.80
2019-01-26T23:04:58.758Z,4.90
2019-01-26T23:08:20.626Z,4.90
2019-01-26T23:11:20.180Z,4.90
2019-01-26T23:14:10.927Z,4.80
2019-01-26T23:17:32.515Z,4.70
2019-01-26T23:20:55.982Z,4.70
2019-01-26T23:24:18.556Z,4.70
2019-01-26T23:27:43.466Z,4.70
2019-01-26T23:31:14.046Z,4.80
2019-01-26T23:33:54.552Z,4.80
2019-01-26T23:36:34.544Z,4.90
2019-01-26T23:39:06.327Z,4.90
2019-01-26T23:41:34.915Z,4.90
2019-01-26T23:44:02.974Z,4.80
2019-01-26T23:46:31.643Z,4.80
2019-01-26T23:49:00.068Z,4.80
2019-01-26T23:51:28.499Z,4.80
2019-01-26T23:53:56.951Z,4.80
2019-01-26T23:56:25.971Z,4.80
2019-01-26T23:58:54.478Z,4.80
